Denison, Texas
Current Conditions -  °F | °C
As of 8:55 PM on Friday 21 Nov 2014 (Local Time) from KGYI Reporting Station
Overcast Overcast  
Wind Chill: 63°   Ceiling: 700
Heat Index: 63°   Visibility: 7mi
Dew Point: 63°   Wind: 10mph
Humidity: 99%   Direction: 150°SSE
Pressure: 30.1"   Gusts: NA
Location:  33.76°N, 96.54°W
Report Text: KGYI 220255Z AUTO 15009KT 7SM OVC007 17/17 A3010 RMK AO2 T01720170
Loading
Personal Weather Stations






























Interactive Weather Map New forecast layout! Learn more

10-Day Weather Forecast

Advertisements
Track Severe Weather on mobile